Time;durP1;ratioP1;P1;durP2;ratioP2;P2;SDS_P1;SDS_P2;PMS_P1;PMS_P2;Temp;Humidity;BMP_temperature;BMP_pressure;BME280_temperature;BME280_humidity;BME280_pressure;Samples;Min_cycle;Max_cycle;Signal;HPM_P1;HPM_P2
2024/01/29 00:01:05;;;;;;;6.70;4.10;;;;;;;1.25;100.00;102389.69;5052090;28;20114;-65
2024/01/29 00:03:30;;;;;;;6.37;3.93;;;;;;;1.38;100.00;102417.13;5052454;28;20039;-67
2024/01/29 00:05:56;;;;;;;5.60;4.07;;;;;;;1.46;100.00;102433.44;5051877;28;20043;-66
2024/01/29 00:08:22;;;;;;;7.87;5.67;;;;;;;1.46;100.00;102436.06;5052562;28;20040;-66
2024/01/29 00:10:47;;;;;;;6.60;4.40;;;;;;;1.51;100.00;102447.25;5050699;28;20175;-65
2024/01/29 00:13:13;;;;;;;7.73;4.90;;;;;;;1.49;100.00;102422.81;5052006;28;20499;-65
2024/01/29 00:15:38;;;;;;;6.53;5.00;;;;;;;1.53;100.00;102427.03;5051791;28;20033;-67
2024/01/29 00:18:04;;;;;;;5.90;4.77;;;;;;;1.55;100.00;102419.94;5051857;28;20047;-66
2024/01/29 00:20:33;;;;;;;5.37;4.63;;;;;;;1.48;100.00;102413.22;5051575;28;20041;-65
2024/01/29 00:22:58;;;;;;;8.57;4.53;;;;;;;1.60;100.00;102426.75;5051698;28;20044;-66
2024/01/29 00:25:24;;;;;;;6.47;4.47;;;;;;;1.59;100.00;102419.81;5051547;28;20044;-66
2024/01/29 00:27:49;;;;;;;6.40;4.60;;;;;;;1.64;100.00;102433.59;5051603;28;20060;-66
2024/01/29 00:30:16;;;;;;;7.97;4.33;;;;;;;1.56;100.00;102415.53;5051779;28;20044;-66
2024/01/29 00:32:41;;;;;;;8.03;4.70;;;;;;;1.53;100.00;102413.03;5051505;28;20065;-66
2024/01/29 00:35:07;;;;;;;5.67;4.27;;;;;;;1.57;100.00;102408.50;5051673;28;20296;-66
2024/01/29 00:37:33;;;;;;;5.57;4.27;;;;;;;1.48;100.00;102392.22;5051192;28;20044;-67
2024/01/29 00:39:59;;;;;;;7.17;4.47;;;;;;;1.58;100.00;102408.44;5052340;28;20275;-65
2024/01/29 00:42:24;;;;;;;7.23;5.07;;;;;;;1.29;100.00;102354.53;5050849;28;20419;-65
2024/01/29 00:44:49;;;;;;;8.03;4.83;;;;;;;1.51;100.00;102394.72;5051883;28;20049;-66
2024/01/29 00:47:15;;;;;;;7.37;4.77;;;;;;;1.47;100.00;102387.03;5051583;28;20044;-66
2024/01/29 00:49:41;;;;;;;8.17;5.80;;;;;;;1.57;100.00;102395.38;5054374;28;20036;-65
2024/01/29 00:52:07;;;;;;;6.27;4.63;;;;;;;1.58;100.00;102408.44;5055379;28;20464;-67
2024/01/29 00:54:33;;;;;;;8.23;4.63;;;;;;;1.51;100.00;102407.00;5055075;28;20560;-66
2024/01/29 00:56:58;;;;;;;11.10;5.70;;;;;;;1.30;100.00;102345.75;5055311;28;20354;-65
2024/01/29 00:59:24;;;;;;;8.53;4.83;;;;;;;1.57;100.00;102390.13;5053828;28;20485;-66
2024/01/29 01:01:49;;;;;;;13.03;4.80;;;;;;;1.60;100.00;102382.13;5053940;28;20380;-67
2024/01/29 01:04:15;;;;;;;7.47;4.93;;;;;;;1.68;100.00;102406.28;5055019;28;20458;-66
2024/01/29 01:06:41;;;;;;;7.97;5.00;;;;;;;1.54;100.00;102397.22;5054608;28;20068;-66
2024/01/29 01:09:09;;;;;;;7.17;4.67;;;;;;;1.67;100.00;102409.81;5053509;28;20267;-66
2024/01/29 01:11:35;;;;;;;6.83;5.40;;;;;;;1.53;100.00;102384.16;5054885;28;20515;-65
2024/01/29 01:14:00;;;;;;;5.60;4.87;;;;;;;1.44;100.00;102371.41;5053698;28;20309;-66
2024/01/29 01:16:26;;;;;;;6.80;4.70;;;;;;;1.39;100.00;102376.84;5054721;28;20275;-66
2024/01/29 01:18:51;;;;;;;6.67;5.20;;;;;;;1.50;100.00;102392.16;5054639;28;20191;-66
2024/01/29 01:21:17;;;;;;;9.63;5.97;;;;;;;1.45;100.00;102394.97;5054503;28;20055;-65
2024/01/29 01:23:42;;;;;;;6.43;4.70;;;;;;;1.59;100.00;102399.63;5053508;28;20033;-64
2024/01/29 01:26:08;;;;;;;6.97;4.47;;;;;;;1.63;100.00;102387.22;5053221;28;20484;-66
2024/01/29 01:28:35;;;;;;;7.67;4.70;;;;;;;1.67;100.00;102388.81;5053105;28;20060;-64
2024/01/29 01:31:01;;;;;;;7.10;4.40;;;;;;;1.66;100.00;102381.84;5054928;28;20275;-66
2024/01/29 01:33:28;;;;;;;5.53;4.00;;;;;;;1.48;100.00;102360.72;5054438;28;20122;-66
2024/01/29 01:35:53;;;;;;;8.23;4.60;;;;;;;1.22;100.00;102321.59;5054624;28;20292;-66
2024/01/29 01:38:19;;;;;;;6.20;4.10;;;;;;;1.64;100.00;102365.31;5052989;28;20820;-66
2024/01/29 01:40:44;;;;;;;8.40;4.40;;;;;;;1.64;100.00;102365.31;5052863;28;20047;-67
2024/01/29 01:43:21;;;;;;;8.40;4.20;;;;;;;1.60;100.00;102342.72;5054002;28;20076;-63
2024/01/29 01:46:09;;;;;;;6.60;3.90;;;;;;;1.63;100.00;102358.34;5054627;28;20099;-67
2024/01/29 01:48:35;;;;;;;8.23;4.20;;;;;;;1.64;100.00;102354.81;5036781;28;20287;-65
2024/01/29 01:51:02;;;;;;;8.00;4.77;;;;;;;1.66;100.00;102358.22;5036150;28;20745;-65
2024/01/29 01:53:31;;;;;;;7.13;4.80;;;;;;;1.57;100.00;102337.59;5054194;28;20302;-67
2024/01/29 01:55:59;;;;;;;10.00;4.32;;;;;;;1.51;100.00;102323.81;5053760;28;21012;-67
2024/01/29 01:58:27;;;;;;;4.78;4.07;;;;;;;1.58;100.00;102315.69;5053797;28;20047;-66
2024/01/29 02:00:52;;;;;;;6.20;4.13;;;;;;;1.48;100.00;102308.22;5053154;28;20036;-66
2024/01/29 02:03:18;;;;;;;9.03;4.50;;;;;;;1.61;100.00;102326.03;5053720;28;20267;-67
2024/01/29 02:05:45;;;;;;;8.20;4.33;;;;;;;1.52;100.00;102312.41;5053953;28;20503;-65
2024/01/29 02:08:12;;;;;;;6.90;3.90;;;;;;;1.45;100.00;102294.38;5052722;28;20111;-66
2024/01/29 02:10:37;;;;;;;6.67;4.77;;;;;;;1.50;100.00;102288.00;5053699;28;20275;-66
2024/01/29 02:13:03;;;;;;;6.73;3.93;;;;;;;1.55;100.00;102293.03;5052385;28;20291;-66
2024/01/29 02:15:28;;;;;;;6.47;4.10;;;;;;;1.60;100.00;102285.81;5053626;28;20029;-68
2024/01/29 02:17:54;;;;;;;8.13;4.10;;;;;;;1.16;100.00;102216.91;5053832;28;20119;-65
2024/01/29 02:20:20;;;;;;;7.40;4.70;;;;;;;1.62;100.00;102291.84;5053627;28;20053;-66
2024/01/29 02:22:46;;;;;;;8.23;4.77;;;;;;;1.62;100.00;102283.97;5053748;28;20045;-65
2024/01/29 02:25:13;;;;;;;8.73;4.20;;;;;;;1.52;100.00;102277.41;5054094;28;20309;-66
2024/01/29 02:27:38;;;;;;;6.80;4.67;;;;;;;1.47;100.00;102263.66;5057102;28;20040;-67
2024/01/29 02:30:05;;;;;;;6.93;4.57;;;;;;;1.60;100.00;102271.81;5052252;28;20267;-66
2024/01/29 02:32:31;;;;;;;12.47;5.17;;;;;;;1.20;100.00;102210.59;5053549;28;20381;-65
2024/01/29 02:34:56;;;;;;;8.50;4.30;;;;;;;1.64;100.00;102270.75;5053484;28;20311;-65
2024/01/29 02:37:22;;;;;;;7.90;5.23;;;;;;;1.59;100.00;102262.25;5053261;28;20714;-67
2024/01/29 02:39:50;;;;;;;11.57;5.37;;;;;;;1.51;100.00;102237.19;5053208;28;20400;-67
2024/01/29 02:42:17;;;;;;;11.10;6.97;;;;;;;1.68;100.00;102260.03;5053100;28;20080;-67
2024/01/29 02:44:43;;;;;;;9.90;6.50;;;;;;;1.55;100.00;102248.41;5052971;28;20039;-66
2024/01/29 02:47:08;;;;;;;10.87;5.20;;;;;;;1.13;100.00;102169.75;5052732;28;20371;-64
2024/01/29 02:49:34;;;;;;;6.03;4.57;;;;;;;1.71;100.00;102277.44;5051889;28;20032;-66
2024/01/29 02:51:59;;;;;;;8.80;5.03;;;;;;;1.68;100.00;102267.06;5052736;28;20067;-65
2024/01/29 02:54:25;;;;;;;9.93;6.00;;;;;;;1.61;100.00;102257.78;5052470;28;20048;-65
2024/01/29 02:56:50;;;;;;;8.77;5.17;;;;;;;1.73;100.00;102280.84;5051567;28;20033;-68
2024/01/29 02:59:16;;;;;;;7.37;5.37;;;;;;;1.65;100.00;102246.19;5052681;28;20041;-66
2024/01/29 03:01:41;;;;;;;9.00;5.00;;;;;;;1.75;100.00;102260.66;5053510;28;20833;-65
2024/01/29 03:04:07;;;;;;;8.37;5.60;;;;;;;1.68;100.00;102256.56;5053889;28;20068;-65
2024/01/29 03:06:33;;;;;;;8.67;5.13;;;;;;;1.79;100.00;102255.19;5054051;28;20127;-65
2024/01/29 03:08:58;;;;;;;12.03;6.17;;;;;;;1.57;100.00;102209.78;5052971;28;20445;-65
2024/01/29 03:11:24;;;;;;;5.50;4.60;;;;;;;1.67;100.00;102237.34;5051448;28;20421;-65
2024/01/29 03:13:49;;;;;;;6.23;4.60;;;;;;;1.62;100.00;102214.84;5051093;28;20045;-67
2024/01/29 03:16:15;;;;;;;8.07;4.13;;;;;;;1.69;100.00;102221.50;5052600;28;20519;-65
2024/01/29 03:18:43;;;;;;;9.80;4.20;;;;;;;1.76;100.00;102234.31;5052589;28;20068;-66
2024/01/29 03:21:09;;;;;;;7.90;4.60;;;;;;;1.61;100.00;102218.38;5051463;28;20441;-66
2024/01/29 03:23:35;;;;;;;12.17;4.33;;;;;;;1.55;100.00;102199.38;5052389;28;20052;-66
2024/01/29 03:26:01;;;;;;;7.60;4.03;;;;;;;1.61;100.00;102198.22;5052197;28;20318;-66
2024/01/29 03:28:26;;;;;;;7.07;4.53;;;;;;;1.71;100.00;102214.41;5051340;28;20472;-65
2024/01/29 03:30:52;;;;;;;6.33;4.00;;;;;;;1.44;100.00;102170.09;5052260;28;20102;-65
2024/01/29 03:33:17;;;;;;;9.10;4.40;;;;;;;1.69;100.00;102222.34;5051006;28;20040;-64
2024/01/29 03:35:43;;;;;;;6.30;3.63;;;;;;;1.70;100.00;102215.31;5052451;28;20041;-65
2024/01/29 03:38:08;;;;;;;7.80;4.83;;;;;;;1.65;100.00;102193.69;5052083;28;20033;-68
2024/01/29 03:40:33;;;;;;;11.20;4.47;;;;;;;1.70;100.00;102202.19;5052037;28;20607;-66
2024/01/29 03:42:59;;;;;;;6.83;4.20;;;;;;;1.64;100.00;102192.84;5051834;28;20055;-65
2024/01/29 03:45:24;;;;;;;6.97;4.20;;;;;;;1.64;100.00;102176.22;5050451;28;20032;-65
2024/01/29 03:47:50;;;;;;;6.80;3.50;;;;;;;1.68;100.00;102189.13;5050875;28;20033;-65
2024/01/29 03:50:15;;;;;;;5.80;4.20;;;;;;;1.66;100.00;102171.75;5052178;28;20481;-65
2024/01/29 03:52:41;;;;;;;8.23;4.23;;;;;;;1.62;100.00;102172.81;5052166;28;20404;-65
2024/01/29 03:55:07;;;;;;;7.97;3.90;;;;;;;1.64;100.00;102176.22;5051908;28;20033;-66
2024/01/29 03:57:32;;;;;;;9.13;3.80;;;;;;;1.65;100.00;102180.56;5052047;28;20071;-66
2024/01/29 03:59:58;;;;;;;10.63;4.27;;;;;;;1.57;100.00;102166.94;5052817;28;20049;-66
2024/01/29 04:02:23;;;;;;;6.97;3.73;;;;;;;1.57;100.00;102159.06;5052476;28;20461;-67
2024/01/29 04:04:49;;;;;;;5.73;3.70;;;;;;;1.48;100.00;102141.97;5050814;28;20080;-67
2024/01/29 04:07:17;;;;;;;11.83;5.07;;;;;;;1.45;100.00;102137.69;5052006;28;20047;-68
2024/01/29 04:09:43;;;;;;;4.38;3.53;;;;;;;1.59;100.00;102168.56;5050566;28;20071;-66
2024/01/29 04:12:09;;;;;;;7.87;4.03;;;;;;;1.67;100.00;102176.94;5052262;28;20124;-65
2024/01/29 04:14:35;;;;;;;7.43;4.20;;;;;;;1.60;100.00;102158.91;5052409;28;20564;-65
2024/01/29 04:17:04;;;;;;;8.27;3.57;;;;;;;0.97;100.00;102059.44;5052600;28;20350;-68
2024/01/29 04:19:30;;;;;;;8.97;4.33;;;;;;;1.61;100.00;102150.09;5051976;28;20053;-66
2024/01/29 04:21:57;;;;;;;7.97;4.03;;;;;;;1.59;100.00;102147.56;5051664;28;20624;-65
2024/01/29 04:24:23;;;;;;;6.33;3.50;;;;;;;1.74;100.00;102167.00;5051747;28;20036;-67
2024/01/29 04:26:48;;;;;;;5.60;3.63;;;;;;;1.67;100.00;102176.94;5051467;28;20325;-65
2024/01/29 04:29:14;;;;;;;8.10;4.30;;;;;;;1.62;100.00;102147.41;5052385;28;20090;-69
2024/01/29 04:31:39;;;;;;;6.93;4.07;;;;;;;1.62;100.00;102151.81;5050037;28;20036;-73
2024/01/29 04:34:05;;;;;;;6.53;4.87;;;;;;;1.59;100.00;102130.94;5051699;28;20135;-71
2024/01/29 04:36:31;;;;;;;6.90;3.60;;;;;;;1.45;100.00;102116.69;5051591;28;20493;-70
2024/01/29 04:38:57;;;;;;;8.33;3.63;;;;;;;1.38;100.00;102107.38;5034193;28;20065;-69
2024/01/29 04:41:23;;;;;;;5.37;3.67;;;;;;;1.62;100.00;102141.31;5052621;28;20036;-70
2024/01/29 04:43:49;;;;;;;7.33;3.63;;;;;;;1.58;100.00;102145.84;5051046;28;20647;-80
2024/01/29 04:46:15;;;;;;;9.60;4.17;;;;;;;1.67;100.00;102152.44;5050144;28;20064;-70
2024/01/29 04:48:41;;;;;;;8.40;3.80;;;;;;;1.33;100.00;102087.53;5050069;28;20275;-70
2024/01/29 04:51:08;;;;;;;6.20;3.63;;;;;;;1.60;100.00;102132.66;5051385;28;20271;-66
2024/01/29 04:53:34;;;;;;;6.17;3.50;;;;;;;1.64;100.00;102128.94;5050854;28;20079;-68
2024/01/29 04:56:03;;;;;;;7.73;3.47;;;;;;;1.64;100.00;102113.19;5050881;28;20275;-69
2024/01/29 04:58:29;;;;;;;6.50;3.43;;;;;;;1.61;100.00;102105.47;5051143;28;20040;-69
2024/01/29 05:00:55;;;;;;;13.93;4.40;;;;;;;1.61;100.00;102092.34;5049758;28;20661;-69
2024/01/29 05:03:21;;;;;;;7.37;4.30;;;;;;;1.67;100.00;102115.69;5049357;28;20394;-71
2024/01/29 05:05:46;;;;;;;7.30;3.80;;;;;;;1.71;100.00;102119.84;5049530;28;20033;-69
2024/01/29 05:08:13;;;;;;;6.53;3.50;;;;;;;1.61;100.00;102085.31;5049161;28;20036;-69
2024/01/29 05:10:39;;;;;;;8.00;4.17;;;;;;;1.54;100.00;102078.66;5049606;28;20385;-70
2024/01/29 05:13:04;;;;;;;8.30;4.57;;;;;;;1.68;100.00;102099.00;5049354;28;20318;-69
2024/01/29 05:15:30;;;;;;;10.83;4.03;;;;;;;1.60;100.00;102077.50;5049178;28;20100;-72
2024/01/29 05:17:56;;;;;;;12.87;5.30;;;;;;;1.70;100.00;102098.00;5052511;28;20037;-68
2024/01/29 05:20:21;;;;;;;7.47;3.67;;;;;;;1.71;100.00;102077.84;5053625;28;20496;-70
2024/01/29 05:22:47;;;;;;;5.90;4.33;;;;;;;1.73;100.00;102095.22;5052228;28;20302;-70
2024/01/29 05:25:13;;;;;;;6.83;5.20;;;;;;;1.61;100.00;102081.84;5043397;28;20044;-68
2024/01/29 05:27:38;;;;;;;7.47;4.43;;;;;;;1.65;100.00;102094.75;5038286;28;20041;-72
2024/01/29 05:30:04;;;;;;;10.17;4.47;;;;;;;1.74;100.00;102093.47;5044589;28;20112;-69
2024/01/29 05:32:30;;;;;;;7.80;4.33;;;;;;;1.73;100.00;102097.00;5037232;28;20029;-70
2024/01/29 05:34:55;;;;;;;8.60;3.90;;;;;;;1.60;100.00;102080.13;5048332;28;20311;-69
2024/01/29 05:37:21;;;;;;;14.17;4.47;;;;;;;1.67;100.00;102085.00;5051878;28;20754;-70
2024/01/29 05:39:46;;;;;;;7.20;4.57;;;;;;;1.61;100.00;102071.31;5048449;28;20484;-69
2024/01/29 05:42:12;;;;;;;7.47;4.63;;;;;;;1.66;100.00;102080.69;5047470;28;20041;-70
2024/01/29 05:44:37;;;;;;;9.17;4.70;;;;;;;1.58;100.00;102061.81;5037232;28;20048;-69
2024/01/29 05:47:03;;;;;;;8.30;4.30;;;;;;;1.62;100.00;102062.53;5039510;28;20063;-68
2024/01/29 05:49:28;;;;;;;7.23;4.47;;;;;;;1.57;100.00;102043.53;5047565;28;20075;-69
2024/01/29 05:51:54;;;;;;;6.20;4.60;;;;;;;1.67;100.00;102076.28;5038543;28;20068;-70
2024/01/29 05:54:19;;;;;;;10.60;4.37;;;;;;;1.62;100.00;102058.13;5035657;28;20445;-70
2024/01/29 05:56:46;;;;;;;13.07;6.33;;;;;;;1.60;100.00;102072.25;5050254;28;20128;-69
2024/01/29 05:59:11;;;;;;;6.47;4.57;;;;;;;1.41;100.00;102038.97;5047160;28;20496;-68
2024/01/29 06:01:37;;;;;;;10.93;5.77;;;;;;;1.47;100.00;102054.47;5044634;28;20280;-69
2024/01/29 06:04:02;;;;;;;7.57;3.90;;;;;;;1.42;100.00;102066.94;5046415;28;20123;-69
2024/01/29 06:06:28;;;;;;;5.83;3.67;;;;;;;1.57;100.00;102078.50;5049430;28;20044;-73
2024/01/29 06:08:53;;;;;;;6.53;4.63;;;;;;;1.46;100.00;102060.66;5047615;28;20033;-70
2024/01/29 06:11:22;;;;;;;6.73;4.23;;;;;;;1.45;100.00;102066.81;5051980;28;20480;-71
2024/01/29 06:13:47;;;;;;;7.70;4.20;;;;;;;1.42;100.00;102056.44;5045990;28;20029;-68
2024/01/29 06:16:20;;;;;;;13.83;4.10;;;;;;;1.58;100.00;102068.84;5047842;28;20079;-70
2024/01/29 06:18:48;;;;;;;6.00;3.77;;;;;;;1.55;100.00;102075.09;5047758;28;20052;-69
2024/01/29 06:21:13;;;;;;;14.82;5.78;;;;;;;1.59;100.00;102065.31;5047314;28;20299;-70
2024/01/29 06:23:39;;;;;;;6.10;3.73;;;;;;;1.52;100.00;102055.09;5053042;28;20481;-70
2024/01/29 06:26:04;;;;;;;7.30;4.77;;;;;;;1.49;100.00;102047.38;5046014;28;20025;-70
2024/01/29 06:28:30;;;;;;;6.90;3.80;;;;;;;1.53;100.00;102038.41;5051209;28;20163;-71
2024/01/29 06:30:55;;;;;;;10.60;6.17;;;;;;;1.26;100.00;102002.97;5047559;28;20052;-71
2024/01/29 06:33:21;;;;;;;9.73;4.27;;;;;;;1.55;100.00;102046.22;5043822;28;20128;-71
2024/01/29 06:35:47;;;;;;;8.70;4.27;;;;;;;1.68;100.00;102041.22;5048585;28;20038;-71
2024/01/29 06:38:12;;;;;;;5.27;3.63;;;;;;;1.51;100.00;102032.41;5049200;28;20041;-71
2024/01/29 06:40:37;;;;;;;5.57;3.57;;;;;;;1.69;100.00;102053.41;5053334;28;20481;-67
2024/01/29 06:43:03;;;;;;;6.17;4.33;;;;;;;1.75;100.00;102054.00;5050417;28;20037;-68
2024/01/29 06:45:30;;;;;;;8.10;3.53;;;;;;;1.59;100.00;102021.50;5052560;28;20033;-69
2024/01/29 06:47:57;;;;;;;6.93;3.93;;;;;;;1.80;100.00;102053.78;5048423;28;20120;-70
2024/01/29 06:50:23;;;;;;;8.90;3.67;;;;;;;1.76;100.00;102060.97;5046882;28;20303;-72
2024/01/29 06:52:48;;;;;;;9.27;4.63;;;;;;;1.61;100.00;102029.31;5049586;28;20288;-72
2024/01/29 06:55:14;;;;;;;10.07;3.97;;;;;;;1.67;100.00;102029.88;5051476;28;20029;-72
2024/01/29 06:57:40;;;;;;;4.80;3.50;;;;;;;1.82;100.00;102044.03;5052918;28;20381;-71
2024/01/29 07:00:06;;;;;;;9.47;3.83;;;;;;;1.77;100.00;102030.28;5054474;28;20462;-69
2024/01/29 07:02:32;;;;;;;9.17;4.17;;;;;;;1.52;100.00;101986.00;5043934;28;20039;-71
2024/01/29 07:04:57;;;;;;;7.20;3.17;;;;;;;1.82;100.00;102017.78;5045411;28;20290;-70
2024/01/29 07:07:23;;;;;;;8.00;3.03;;;;;;;1.85;100.00;102010.59;5050720;28;20267;-70
2024/01/29 07:09:54;;;;;;;8.77;3.53;;;;;;;1.97;100.00;102032.75;5051872;28;20474;-71
2024/01/29 07:12:19;;;;;;;10.13;3.60;;;;;;;1.82;100.00;102017.78;5050418;28;20029;-69
2024/01/29 07:14:44;;;;;;;8.30;4.47;;;;;;;1.89;100.00;102019.16;5046000;28;20303;-69
2024/01/29 07:17:10;;;;;;;7.70;4.13;;;;;;;1.92;100.00;102033.91;5031323;28;20098;-69
2024/01/29 07:19:36;;;;;;;6.13;3.23;;;;;;;1.90;100.00;102020.88;5050835;28;20060;-74
2024/01/29 07:22:04;;;;;;;6.70;2.97;;;;;;;1.85;100.00;102022.88;5049446;28;20362;-71
2024/01/29 07:24:33;;;;;;;5.25;3.25;;;;;;;1.83;100.00;102019.47;5050192;28;20072;-72
2024/01/29 07:26:59;;;;;;;5.53;3.28;;;;;;;1.80;100.00;102009.13;5046915;28;20046;-71
2024/01/29 07:29:26;;;;;;;5.97;3.30;;;;;;;1.85;100.00;102000.09;5044087;28;20043;-71
2024/01/29 07:31:55;;;;;;;8.07;3.30;;;;;;;1.74;100.00;101977.91;5049615;28;20040;-71
2024/01/29 07:34:22;;;;;;;8.60;2.88;;;;;;;1.96;100.00;102010.03;5049925;28;20353;-68
2024/01/29 07:36:47;;;;;;;6.87;3.83;;;;;;;2.01;100.00;102009.81;5050767;28;20041;-70
2024/01/29 07:39:13;;;;;;;4.60;2.97;;;;;;;2.04;100.00;102014.94;5047144;28;20662;-70
2024/01/29 07:41:39;;;;;;;8.37;3.60;;;;;;;1.93;100.00;101993.59;5042385;28;20041;-69
2024/01/29 07:44:05;;;;;;;6.93;2.80;;;;;;;2.02;100.00;102007.09;5044316;28;20029;-70
2024/01/29 07:46:31;;;;;;;7.00;3.07;;;;;;;2.04;100.00;102002.66;5044249;28;20302;-68
2024/01/29 07:48:59;;;;;;;8.40;3.33;;;;;;;2.07;100.00;102012.16;5051341;28;20116;-69
2024/01/29 07:51:25;;;;;;;3.95;2.50;;;;;;;2.14;100.00;102014.38;5046764;28;20037;-70
2024/01/29 07:53:50;;;;;;;4.67;3.30;;;;;;;2.08;100.00;101998.94;5048801;28;20052;-71
2024/01/29 07:56:16;;;;;;;3.37;2.37;;;;;;;2.14;100.00;102008.28;5045286;28;20167;-71
2024/01/29 07:58:42;;;;;;;5.67;2.50;;;;;;;2.24;100.00;102016.53;5049645;28;20047;-67
2024/01/29 08:01:07;;;;;;;7.50;2.80;;;;;;;2.17;100.00;101998.44;5044831;28;20041;-70
2024/01/29 08:03:32;;;;;;;9.73;2.20;;;;;;;2.24;100.00;102011.28;5025289;28;20323;-69
2024/01/29 08:05:58;;;;;;;3.87;2.40;;;;;;;2.22;100.00;101998.22;5048331;28;20048;-69
2024/01/29 08:08:24;;;;;;;5.60;2.50;;;;;;;2.24;100.00;102004.25;5051334;28;20033;-70
2024/01/29 08:10:50;;;;;;;5.90;2.60;;;;;;;2.24;100.00;102009.50;5046641;28;20112;-69
2024/01/29 08:13:15;;;;;;;8.37;3.23;;;;;;;2.14;100.00;101984.63;5044569;28;20049;-69
2024/01/29 08:15:41;;;;;;;3.53;2.73;;;;;;;2.31;100.00;102007.41;5045250;28;20041;-71
2024/01/29 08:18:09;;;;;;;3.30;2.40;;;;;;;2.04;100.00;101970.25;5044706;28;20040;-69
2024/01/29 08:20:35;;;;;;;2.80;2.30;;;;;;;2.27;100.00;101997.97;5046559;28;20041;-68
2024/01/29 08:23:01;;;;;;;5.97;2.23;;;;;;;2.28;100.00;101997.88;5050243;28;20124;-67
2024/01/29 08:25:26;;;;;;;3.87;2.67;;;;;;;2.28;100.00;102004.94;5047088;28;20379;-69
2024/01/29 08:27:52;;;;;;;3.93;2.20;;;;;;;2.35;100.00;102012.44;5049652;28;20045;-71
2024/01/29 08:30:17;;;;;;;7.83;2.73;;;;;;;2.17;100.00;101971.31;5051067;28;20075;-69
2024/01/29 08:32:44;;;;;;;3.87;2.73;;;;;;;2.44;100.00;101995.31;5050963;28;20040;-71
2024/01/29 08:35:10;;;;;;;2.30;1.90;;;;;;;2.58;100.00;102011.22;5051462;28;20044;-72
2024/01/29 08:37:36;;;;;;;4.50;2.30;;;;;;;2.61;100.00;102010.25;5050531;28;20405;-70
2024/01/29 08:40:02;;;;;;;4.47;2.40;;;;;;;2.47;100.00;101988.13;5053374;28;20358;-68
2024/01/29 08:42:29;;;;;;;3.70;2.10;;;;;;;2.23;100.00;101935.97;5053651;28;20702;-72
2024/01/29 08:47:49;;;;;;;3.77;2.13;;;;;;;2.53;100.00;101994.84;5048420;28;20045;-69
2024/01/29 08:50:14;;;;;;;4.20;2.37;;;;;;;2.34;100.00;101946.81;5050231;28;20601;-72
2024/01/29 08:52:40;;;;;;;6.77;3.73;;;;;;;2.67;100.00;101994.97;5045774;28;20079;-71
2024/01/29 08:55:07;;;;;;;5.37;2.00;;;;;;;2.60;100.00;101980.47;5046428;28;20033;-68
2024/01/29 08:57:32;;;;;;;6.30;2.23;;;;;;;2.66;100.00;101985.38;5050302;28;20036;-69
2024/01/29 08:59:58;;;;;;;7.80;3.23;;;;;;;2.59;100.00;101968.22;5050656;28;20271;-69
2024/01/29 09:02:27;;;;;;;4.33;2.57;;;;;;;2.65;100.00;101974.94;5049281;28;20028;-68
2024/01/29 09:04:53;;;;;;;4.10;2.10;;;;;;;2.71;100.00;101962.31;5050128;28;20060;-71
2024/01/29 09:07:19;;;;;;;5.10;2.40;;;;;;;2.70;100.00;101968.50;5049162;28;20317;-68
2024/01/29 09:09:46;;;;;;;5.77;2.43;;;;;;;2.76;100.00;101981.31;5050129;28;20278;-71
2024/01/29 09:12:12;;;;;;;4.73;2.10;;;;;;;2.80;100.00;101966.22;5052983;28;20032;-68
2024/01/29 09:14:37;;;;;;;6.43;2.57;;;;;;;2.75;100.00;101974.34;5054302;28;20299;-66
2024/01/29 09:17:04;;;;;;;4.00;2.50;;;;;;;2.78;100.00;101963.66;5053939;28;20036;-68
2024/01/29 09:19:29;;;;;;;3.67;2.30;;;;;;;2.82;100.00;101963.50;5053716;28;20049;-70
2024/01/29 09:21:55;;;;;;;9.27;2.60;;;;;;;2.81;100.00;101957.38;5032528;28;20299;-69
2024/01/29 09:24:20;;;;;;;5.37;3.53;;;;;;;2.69;100.00;101948.38;5053964;28;20037;-69
2024/01/29 09:26:49;;;;;;;3.70;2.13;;;;;;;2.76;100.00;101975.22;5053670;28;20055;-68
2024/01/29 09:29:14;;;;;;;5.55;2.42;;;;;;;2.77;100.00;101964.59;5036240;28;20393;-70
2024/01/29 09:31:42;;;;;;;5.03;2.57;;;;;;;2.80;100.00;101967.06;5052605;28;20045;-70
2024/01/29 09:34:08;;;;;;;6.77;4.70;;;;;;;2.72;100.00;101953.47;5051767;28;20041;-69
2024/01/29 09:36:34;;;;;;;8.03;3.07;;;;;;;2.56;100.00;101934.19;5054182;28;20344;-72
2024/01/29 09:39:00;;;;;;;5.13;3.50;;;;;;;2.59;100.00;101947.16;5052888;28;20543;-70
2024/01/29 09:41:31;;;;;;;7.93;2.93;;;;;;;2.64;100.00;101950.44;5054206;28;20350;-72
2024/01/29 09:43:58;;;;;;;9.30;3.60;;;;;;;2.63;100.00;101927.69;5054225;28;20049;-71
2024/01/29 09:46:25;;;;;;;5.17;3.07;;;;;;;2.76;100.00;101923.44;5052647;28;21106;-71
2024/01/29 09:48:51;;;;;;;6.47;2.70;;;;;;;2.77;100.00;101904.09;5052197;28;20390;-69
2024/01/29 09:51:17;;;;;;;7.00;3.50;;;;;;;2.96;99.63;101916.25;5053673;28;20128;-70
2024/01/29 09:53:44;;;;;;;5.67;3.00;;;;;;;3.04;99.07;101942.97;5052596;28;20043;-68
2024/01/29 09:56:10;;;;;;;4.50;2.47;;;;;;;3.06;99.17;101931.41;5054171;28;20278;-68
2024/01/29 09:58:35;;;;;;;2.93;2.47;;;;;;;3.13;99.16;101921.38;5052995;28;20338;-67
2024/01/29 10:01:03;;;;;;;9.60;4.10;;;;;;;2.96;98.09;101872.34;5049794;28;20041;-70
2024/01/29 10:03:32;;;;;;;4.35;2.38;;;;;;;3.31;96.88;101924.78;5050603;28;20139;-69
2024/01/29 10:05:58;;;;;;;6.70;3.27;;;;;;;3.23;96.69;101906.78;5059006;28;20451;-69
2024/01/29 10:08:27;;;;;;;3.20;2.47;;;;;;;3.28;97.60;101909.16;5053782;28;20267;-70
2024/01/29 10:10:54;;;;;;;5.57;2.60;;;;;;;3.30;95.76;101904.66;5052573;28;20392;-73
2024/01/29 10:13:20;;;;;;;7.03;2.87;;;;;;;3.15;95.96;101872.13;5053745;28;20344;-70
2024/01/29 10:15:45;;;;;;;5.90;3.03;;;;;;;2.90;95.82;101837.66;5053765;28;20437;-71
2024/01/29 10:18:12;;;;;;;5.20;2.63;;;;;;;3.41;95.49;101899.59;5051873;28;20032;-69
2024/01/29 10:20:40;;;;;;;6.70;2.80;;;;;;;3.36;95.06;101891.97;5052813;28;20050;-70
2024/01/29 10:23:06;;;;;;;5.97;2.53;;;;;;;3.37;94.23;101912.09;5049980;28;20298;-67
2024/01/29 10:25:34;;;;;;;3.47;2.63;;;;;;;3.37;94.04;101898.94;5051280;28;20037;-69
2024/01/29 10:28:26;;;;;;;4.03;2.60;;;;;;;3.48;94.37;101914.13;5051088;28;20117;-70
2024/01/29 10:30:56;;;;;;;4.07;2.50;;;;;;;3.45;93.82;101910.81;5052261;28;20044;-77
2024/01/29 10:33:22;;;;;;;11.43;3.33;;;;;;;3.42;93.64;101907.41;5054574;28;20298;-70
2024/01/29 10:35:49;;;;;;;4.90;2.73;;;;;;;3.43;92.99;101908.25;5053037;28;20268;-71
2024/01/29 10:38:18;;;;;;;4.57;2.50;;;;;;;3.40;92.96;101877.69;5021782;28;20268;-68
2024/01/29 10:40:45;;;;;;;6.33;2.80;;;;;;;3.50;92.48;101900.88;5051968;28;20340;-67
2024/01/29 10:43:21;;;;;;;5.27;2.70;;;;;;;3.51;91.77;101895.53;5052894;28;20286;-70
2024/01/29 10:45:50;;;;;;;4.80;3.37;;;;;;;3.47;91.79;101906.28;5053223;28;20286;-69
2024/01/29 10:48:20;;;;;;;5.87;2.67;;;;;;;3.51;92.14;101890.25;5049629;28;20267;-72
2024/01/29 10:50:47;;;;;;;4.83;2.60;;;;;;;3.49;91.17;101870.22;5057836;28;20804;-69
2024/01/29 10:53:15;;;;;;;3.33;2.40;;;;;;;3.40;91.62;101856.63;5055733;28;20294;-69
2024/01/29 10:55:43;;;;;;;5.75;3.13;;;;;;;3.38;91.84;101852.38;5052516;28;20288;-69
2024/01/29 10:58:12;;;;;;;7.90;2.60;;;;;;;3.36;92.66;101844.56;5063086;28;20041;-68
2024/01/29 11:00:38;;;;;;;;;;;;;;;3.47;91.79;101867.66;5062356;28;20260;-68
2024/01/29 11:03:05;;;;;;;4.90;2.90;;;;;;;3.37;91.49;101856.81;5066602;28;19917;-71
2024/01/29 11:05:32;;;;;;;4.80;2.53;;;;;;;3.36;91.44;101851.63;5065550;28;20656;-67
2024/01/29 11:08:01;;;;;;;7.23;3.07;;;;;;;3.29;92.41;101840.63;5062928;28;20790;-68
2024/01/29 11:10:28;;;;;;;6.33;2.97;;;;;;;3.25;92.23;101831.19;5066698;28;20339;-73
2024/01/29 11:12:57;;;;;;;3.50;2.93;;;;;;;3.27;92.21;101837.22;5054099;28;20288;-70
2024/01/29 11:15:24;;;;;;;7.25;3.15;;;;;;;3.19;91.89;101836.84;5053749;28;20271;-69
2024/01/29 11:17:49;;;;;;;8.40;2.80;;;;;;;3.22;91.96;101830.53;5052768;28;20061;-69
2024/01/29 11:20:20;;;;;;;4.97;2.60;;;;;;;3.14;91.86;101812.53;5051049;28;20357;-70
2024/01/29 11:22:57;;;;;;;6.43;2.57;;;;;;;3.29;92.63;101832.72;5050557;28;20065;-69
2024/01/29 11:25:22;;;;;;;4.70;2.67;;;;;;;3.26;91.92;101826.78;5052259;28;20313;-71